Sakarya, Turkey
Current Conditions -  °F | °C
As of 8:50 AM on Sunday 23 Nov 2014 (Local Time) from LTBQ Reporting Station
Rain Showers Rain Showers  
Wind Chill:   Ceiling: 1800
Heat Index:   Visibility: 2.5mi
Dew Point:   Wind: 3mph
Humidity: 100%   Direction: 230°SW
Pressure: 30.3"   Gusts: NA
Location:  40.75°N, 30.45°E
Report Text: LTBQ 230550Z 23003KT 170V290 4000 -SHRA BR SCT009 BKN018 BKN070 07/07 Q1026 BECMG 7000
Loading
Personal Weather Stations






























Interactive Weather Map New forecast layout! Learn more

10-Day Weather Forecast

Advertisements
Track Severe Weather on mobile